createdAt,value
2023-03-12T00:00:17.108Z,8.27
2023-03-12T00:05:20.193Z,8.35
2023-03-12T00:10:23.262Z,8.41
2023-03-12T00:15:26.475Z,8.42
2023-03-12T00:20:29.485Z,8.22
2023-03-12T00:25:33.315Z,8.17
2023-03-12T00:30:36.872Z,8.06
2023-03-12T00:35:40.434Z,7.90
2023-03-12T00:40:43.860Z,8.18
2023-03-12T00:45:47.322Z,8.24
2023-03-12T00:50:50.670Z,8.37
2023-03-12T00:55:54.145Z,8.34
2023-03-12T01:00:57.330Z,8.61
2023-03-12T01:06:01.002Z,8.95
2023-03-12T01:11:05.007Z,8.78
2023-03-12T01:16:08.755Z,8.87
2023-03-12T01:21:13.953Z,8.93
2023-03-12T01:26:17.666Z,8.68
2023-03-12T01:31:20.951Z,8.65
2023-03-12T01:36:31.067Z,8.30
2023-03-12T01:41:34.403Z,8.09
2023-03-12T01:46:39.642Z,8.10
2023-03-12T01:52:04.070Z,8.14
2023-03-12T01:57:17.419Z,8.08
2023-03-12T02:02:27.237Z,8.18
2023-03-12T02:07:30.686Z,8.23
2023-03-12T02:12:34.383Z,8.17
2023-03-12T02:17:40.654Z,8.13
2023-03-12T02:22:50.035Z,8.22
2023-03-12T02:27:54.020Z,8.44
2023-03-12T02:33:00.376Z,8.49
2023-03-12T02:38:32.954Z,8.56
2023-03-12T02:43:36.169Z,8.42
2023-03-12T02:48:40.115Z,8.23
2023-03-12T02:53:43.461Z,8.13
2023-03-12T02:58:47.125Z,8.09
2023-03-12T03:03:51.543Z,8.22
2023-03-12T03:08:54.801Z,8.01
2023-03-12T03:13:58.718Z,8.92
2023-03-12T03:19:02.975Z,10.37
2023-03-12T03:24:06.818Z,10.69
2023-03-12T03:29:13.397Z,10.13
2023-03-12T03:34:17.105Z,10.99
2023-03-12T03:39:20.471Z,11.65
2023-03-12T03:44:24.311Z,10.99
2023-03-12T03:49:29.192Z,10.41
2023-03-12T03:54:34.118Z,10.12
2023-03-12T03:59:37.520Z,9.77
2023-03-12T04:04:41.242Z,9.42
2023-03-12T04:09:45.725Z,8.92
2023-03-12T04:14:49.288Z,8.38
2023-03-12T04:19:52.596Z,8.12
2023-03-12T04:24:57.113Z,7.94
2023-03-12T04:30:02.855Z,8.03
2023-03-12T04:35:08.902Z,7.94
2023-03-12T04:40:12.513Z,8.01
2023-03-12T04:45:16.186Z,8.93
2023-03-12T04:50:22.806Z,9.22
2023-03-12T04:55:25.958Z,9.65
2023-03-12T05:00:30.153Z,8.99
2023-03-12T05:05:34.222Z,8.92
2023-03-12T05:10:38.024Z,9.09
2023-03-12T05:15:42.154Z,9.07
2023-03-12T05:20:45.961Z,8.88
2023-03-12T05:25:49.755Z,9.06
2023-03-12T05:30:53.076Z,9.40
2023-03-12T05:35:56.667Z,9.63
2023-03-12T05:41:00.955Z,9.95
2023-03-12T05:46:06.751Z,10.17
2023-03-12T05:51:11.592Z,10.44
2023-03-12T05:56:18.035Z,10.78
2023-03-12T06:01:24.504Z,11.08
2023-03-12T06:06:34.697Z,11.50
2023-03-12T06:11:38.409Z,11.82
2023-03-12T06:16:41.736Z,12.54
2023-03-12T06:21:45.400Z,13.01
2023-03-12T06:26:49.626Z,13.34
2023-03-12T06:31:53.681Z,15.44
2023-03-12T06:36:57.380Z,17.74
2023-03-12T06:42:01.551Z,19.06
2023-03-12T06:47:04.884Z,20.79
2023-03-12T06:52:08.094Z,20.88
2023-03-12T06:57:11.455Z,20.85
2023-03-12T07:02:14.992Z,20.03
2023-03-12T07:07:18.571Z,20.79
2023-03-12T07:12:21.717Z,21.65
2023-03-12T07:17:26.079Z,22.07
2023-03-12T07:22:29.802Z,23.96
2023-03-12T07:27:33.316Z,23.16
2023-03-12T07:32:37.149Z,23.10
2023-03-12T07:37:40.405Z,21.55
2023-03-12T07:42:44.639Z,22.08
2023-03-12T07:47:49.556Z,21.51
2023-03-12T07:52:53.312Z,22.59
2023-03-12T07:57:58.789Z,22.79
2023-03-12T08:03:02.242Z,23.91
2023-03-12T08:08:05.824Z,22.07
2023-03-12T08:13:09.316Z,23.00
2023-03-12T08:18:13.738Z,21.39
2023-03-12T08:23:18.609Z,23.88
2023-03-12T08:28:24.677Z,22.17
2023-03-12T08:33:28.201Z,21.76
2023-03-12T08:38:31.900Z,22.05
2023-03-12T08:55:12.760Z,21.79
2023-03-12T09:00:18.249Z,22.08
2023-03-12T09:05:21.839Z,23.20
2023-03-12T09:10:30.204Z,22.12
2023-03-12T09:15:34.694Z,23.48
2023-03-12T09:20:47.713Z,21.85
2023-03-12T09:25:53.041Z,23.08
2023-03-12T09:30:57.058Z,21.83
2023-03-12T09:36:01.219Z,20.74
2023-03-12T09:41:06.718Z,21.65
2023-03-12T09:46:18.325Z,21.53
2023-03-12T09:51:29.292Z,21.55
2023-03-12T09:56:34.741Z,20.56
2023-03-12T10:01:49.405Z,21.01
2023-03-12T10:07:11.705Z,21.29
2023-03-12T10:12:38.114Z,21.60
2023-03-12T10:17:53.161Z,21.27
2023-03-12T10:23:02.195Z,21.67
2023-03-12T10:28:13.901Z,21.50
2023-03-12T10:33:19.100Z,20.62
2023-03-12T10:38:29.733Z,21.15
2023-03-12T10:43:35.806Z,21.07
2023-03-12T10:48:39.548Z,21.50
2023-03-12T10:53:48.551Z,21.30
2023-03-12T10:58:54.057Z,19.52
2023-03-12T11:04:40.874Z,19.72
2023-03-12T11:09:45.484Z,20.50
2023-03-12T11:14:48.758Z,20.12
2023-03-12T11:19:53.502Z,20.84
2023-03-12T11:25:08.301Z,20.29
2023-03-12T11:30:16.707Z,19.57
2023-03-12T11:35:41.922Z,20.61
2023-03-12T11:41:00.408Z,19.85
2023-03-12T11:46:06.216Z,19.50
2023-03-12T11:51:19.618Z,20.25
2023-03-12T11:56:30.165Z,18.48
2023-03-12T12:01:51.533Z,19.22
2023-03-12T12:07:22.943Z,19.12
2023-03-12T12:12:40.282Z,18.29
2023-03-12T12:18:02.700Z,17.91
2023-03-12T12:23:31.104Z,17.63
2023-03-12T12:29:03.564Z,17.39
2023-03-12T12:34:25.646Z,16.90
2023-03-12T12:39:38.222Z,16.69
2023-03-12T12:44:48.214Z,16.99
2023-03-12T12:50:01.885Z,18.55
2023-03-12T12:55:17.294Z,19.30
2023-03-12T13:00:50.432Z,19.41
2023-03-12T13:05:53.469Z,19.64
2023-03-12T13:11:05.837Z,18.50
2023-03-12T13:16:36.207Z,17.58
2023-03-12T13:22:12.960Z,17.97
2023-03-12T13:27:30.163Z,17.48
2023-03-12T13:32:37.422Z,17.64
2023-03-12T13:37:52.646Z,17.15
2023-03-12T13:43:31.329Z,17.63
2023-03-12T13:48:36.940Z,18.14
2023-03-12T13:53:40.904Z,18.30
2023-03-12T13:59:05.449Z,17.86
2023-03-12T14:04:16.599Z,17.10
2023-03-12T14:09:24.768Z,16.90
2023-03-12T14:14:53.347Z,16.81
2023-03-12T14:20:13.812Z,16.52
2023-03-12T14:25:26.117Z,16.20
2023-03-12T14:30:44.297Z,15.79
2023-03-12T14:35:53.928Z,16.06
2023-03-12T14:41:06.263Z,16.60
2023-03-12T14:46:19.659Z,16.78
2023-03-12T14:51:25.057Z,15.69
2023-03-12T14:56:30.847Z,15.81
2023-03-12T15:01:39.790Z,16.48
2023-03-12T15:06:55.858Z,16.12
2023-03-12T15:12:09.104Z,16.47
2023-03-12T15:17:24.526Z,15.76
2023-03-12T15:22:28.290Z,16.44
2023-03-12T15:27:34.136Z,15.82
2023-03-12T15:32:37.822Z,15.78
2023-03-12T15:37:43.248Z,15.06
2023-03-12T15:42:48.225Z,14.99
2023-03-12T15:47:54.612Z,15.22
2023-03-12T15:53:31.344Z,15.02
2023-03-12T15:58:41.424Z,14.75
2023-03-12T16:03:46.122Z,14.85
2023-03-12T16:08:53.397Z,15.20
2023-03-12T16:14:22.430Z,14.90
2023-03-12T16:19:29.671Z,14.74
2023-03-12T16:24:33.040Z,14.57
2023-03-12T16:29:38.521Z,14.68
2023-03-12T16:34:43.184Z,14.45
2023-03-12T16:39:46.806Z,14.32
2023-03-12T16:44:49.979Z,14.29
2023-03-12T16:49:53.103Z,14.14
2023-03-12T16:54:56.724Z,14.11
2023-03-12T17:00:02.324Z,13.74
2023-03-12T17:05:06.703Z,13.54
2023-03-12T17:10:11.641Z,13.39
2023-03-12T17:15:17.891Z,13.15
2023-03-12T17:20:23.543Z,12.72
2023-03-12T17:25:29.369Z,12.35
2023-03-12T17:30:34.695Z,12.08
2023-03-12T17:35:40.106Z,11.75
2023-03-12T17:40:45.490Z,11.54
2023-03-12T17:45:49.281Z,11.55
2023-03-12T17:50:52.444Z,11.67
2023-03-12T17:55:55.747Z,11.24
2023-03-12T18:01:01.737Z,11.27
2023-03-12T18:06:05.161Z,11.22
2023-03-12T18:11:08.454Z,11.18
2023-03-12T18:16:11.816Z,10.99
2023-03-12T18:21:15.367Z,10.67
2023-03-12T18:26:18.946Z,10.58
2023-03-12T18:31:23.160Z,10.26
2023-03-12T18:36:26.378Z,10.12
2023-03-12T18:41:33.038Z,10.14
2023-03-12T18:46:36.636Z,10.10
2023-03-12T18:51:40.312Z,10.03
2023-03-12T18:56:43.526Z,9.81
2023-03-12T19:01:46.748Z,9.79
2023-03-12T19:06:51.912Z,9.87
2023-03-12T19:11:55.826Z,9.90
2023-03-12T19:16:59.428Z,9.96
2023-03-12T19:22:03.877Z,9.82
2023-03-12T19:27:06.995Z,9.78
2023-03-12T19:32:11.017Z,9.79
2023-03-12T19:37:14.239Z,9.58
2023-03-12T19:42:17.796Z,9.46
2023-03-12T19:47:22.662Z,9.36
2023-03-12T19:52:26.210Z,9.23
2023-03-12T19:57:30.137Z,9.13
2023-03-12T20:02:33.685Z,9.11
2023-03-12T20:07:37.132Z,8.99
2023-03-12T20:12:40.348Z,8.99
2023-03-12T20:17:43.778Z,9.02
2023-03-12T20:22:48.404Z,9.05
2023-03-12T20:27:53.503Z,9.13
2023-03-12T20:32:58.447Z,9.14
2023-03-12T20:38:03.383Z,9.03
2023-03-12T20:43:07.509Z,9.16
2023-03-12T20:48:12.401Z,8.98
2023-03-12T20:53:15.604Z,8.84
2023-03-12T20:58:19.312Z,8.70
2023-03-12T21:03:23.022Z,8.77
2023-03-12T21:08:27.014Z,8.71
2023-03-12T21:13:31.191Z,8.62
2023-03-12T21:18:35.138Z,8.60
2023-03-12T21:23:39.708Z,8.69
2023-03-12T21:28:43.896Z,8.60
2023-03-12T21:33:47.898Z,8.24
2023-03-12T21:38:54.108Z,8.33
2023-03-12T21:44:00.932Z,8.08
2023-03-12T21:49:05.142Z,7.98
2023-03-12T21:54:08.921Z,7.90
2023-03-12T21:59:12.104Z,7.87
2023-03-12T22:04:15.192Z,7.72
2023-03-12T22:09:18.932Z,7.61
2023-03-12T22:14:23.957Z,7.53
2023-03-12T22:19:27.628Z,7.45
2023-03-12T22:24:31.335Z,7.30
2023-03-12T22:29:35.430Z,7.27
2023-03-12T22:34:39.487Z,7.21
2023-03-12T22:39:43.525Z,7.15
2023-03-12T22:44:46.811Z,7.13
2023-03-12T22:49:50.278Z,7.03
2023-03-12T22:54:53.795Z,6.91
2023-03-12T22:59:56.876Z,7.03
2023-03-12T23:04:59.960Z,6.91
2023-03-12T23:10:04.697Z,6.80
2023-03-12T23:15:08.758Z,6.78
2023-03-12T23:20:13.713Z,6.53
2023-03-12T23:25:17.393Z,6.53
2023-03-12T23:30:20.664Z,6.37
2023-03-12T23:35:23.734Z,6.15
2023-03-12T23:40:27.407Z,6.07
2023-03-12T23:45:31.116Z,6.23
2023-03-12T23:50:35.777Z,6.08
2023-03-12T23:55:38.786Z,5.85
